Johns Island, SC

8:38 AM EDT on April 26, 2015 (GMT -0400)
Charleston Executive | | Change Station
CLOSE
Current Station
Airport
Location: Charleston,
Elevation: 16 ft
Nearby Weather Stations

Elev 16 ft 32.70 °N, 80.01 °W | Updated 3 minutes ago

Clear
Clear
70 °F
Feels Like 70 °F
N
10
Wind Variable Wind from West
Gusts 18 mph

Today
High -- | Low -- °F
--% Chance of Precip.
Yesterday
High -- | Low -- °F
Precip. -- in
6:38 AM 7:58 PM
First Quarter, 55% visible
Pressure 29.64 in
Visibility 10.0 miles
Clouds Clear
Dew Point 64 °F
Humidity 83%
Rainfall 0.00 in
Snow Depth Not available.
UV 2 out of 12
Pollen 10.40 out of 12
Air Quality Not available.
Flu Activity Local Activity
METAR KJZI 261235Z AUTO 27009G16KT 10SM CLR 21/18 A2964 RMK A02 P000

More Conditions Fewer Conditions

Pressure 29.64 in
Visibility 10.0 miles
Clouds Clear
Dew Point 64 °F
Humidity 83%
Rainfall 0.00 in
Snow Depth Not available.
UV 2 out of 12
Pollen 10.40 out of 12
Air Quality Not available.
Flu Activity Local Activity
METAR KJZI 261235Z AUTO 27009G16KT 10SM CLR 21/18 A2964 RMK A02 P000

More Conditions Fewer Conditions

The full scope of the disaster following a powerful 7.8-magnitude earthquake in Nepal may not come into view for days, but global charities are already sending emergency aid. Click to see how you can help.

10-Day Weather Forecast

Almanac

Astronomy

Apr. 26, 2015 Rise Set
Actual Time
Civil Twilight
Nautical Twilight
Astronomical Twilight
Moon
Length of Visible Light
Length of Day
Tomorrow will be .
, % of the Moon is Illuminated

Today's Extremes

State Highs State Lows

Community

WunderPhotos

Upload Photos

1,816,972 photos uploaded!

WunderBlogs® & News

Nearby

Air Quality

  Air Quality AQ Index Pollutant
Not available.

Snow Depth

Station Depth Elevation

Earthquake Activity

City Distance Mag. Time & Date
Minimum magnitude displayed is 2.5.

Coastal Water Temperatures

Place Temperature

Stations

Nearby Weather Stations

Station Location Temp. Windchill Dew Point Humidity Wind Precip. Elev Updated Type